Time;durP1;ratioP1;P1;durP2;ratioP2;P2;SDS_P1;SDS_P2;PMS_P1;PMS_P2;Temp;Humidity;BMP_temperature;BMP_pressure;BME280_temperature;BME280_humidity;BME280_pressure;Samples;Min_cycle;Max_cycle;Signal;HPM_P1;HPM_P2
2023/12/26 00:03:06;;;;;;;16.90;8.40;;;;;;;7.39;100.00;98304.56;271359;1269;22694;-92
2023/12/26 00:09:08;;;;;;;7.60;4.80;;;;;;;7.42;100.00;98301.86;269676;1269;22635;-91
2023/12/26 00:15:13;;;;;;;4.80;2.50;;;;;;;7.49;100.00;98297.52;271591;1270;23418;-91
2023/12/26 00:29:51;;;;;;;1.70;1.00;;;;;;;7.88;100.00;98278.66;273495;1272;22196;-91
2023/12/26 00:36:04;;;;;;;2.10;1.00;;;;;;;8.11;100.00;98277.80;270620;1269;22440;-92
2023/12/26 00:42:19;;;;;;;2.00;0.90;;;;;;;8.32;100.00;98276.98;270939;1272;22956;-91
2023/12/26 00:48:30;;;;;;;1.40;0.90;;;;;;;8.45;100.00;98284.81;270964;1270;22636;-91
2023/12/26 00:55:08;;;;;;;1.90;0.70;;;;;;;8.58;100.00;98284.92;269896;1268;22650;-90
2023/12/26 01:01:14;;;;;;;1.30;0.50;;;;;;;8.71;100.00;98282.84;270521;1274;22619;-91
2023/12/26 01:07:17;;;;;;;1.10;0.70;;;;;;;8.86;100.00;98290.13;271643;1273;22533;-90
2023/12/26 01:13:19;;;;;;;2.60;1.30;;;;;;;8.85;100.00;98287.38;270106;1269;22481;-92
2023/12/26 01:19:25;;;;;;;2.50;1.20;;;;;;;8.81;100.00;98285.40;271754;1273;22582;-91
2023/12/26 01:25:27;;;;;;;2.00;1.20;;;;;;;8.73;100.00;98288.31;269603;1272;22547;-91
2023/12/26 01:31:29;;;;;;;1.90;1.20;;;;;;;8.69;100.00;98287.73;270398;1268;22225;-91
2023/12/26 01:37:36;;;;;;;2.10;1.20;;;;;;;8.65;100.00;98291.68;271283;1272;23496;-91
2023/12/26 01:43:41;;;;;;;3.50;1.50;;;;;;;8.62;100.00;98299.45;270135;1273;23828;-90
2023/12/26 01:49:46;;;;;;;2.50;1.30;;;;;;;8.60;100.00;98298.95;272628;1271;24271;-92
2023/12/26 01:55:50;;;;;;;2.70;1.40;;;;;;;8.58;100.00;98296.45;270381;1271;22280;-93
2023/12/26 02:01:54;;;;;;;3.00;1.30;;;;;;;8.57;100.00;98295.67;270424;1269;22313;-91
2023/12/26 02:08:10;;;;;;;3.10;1.10;;;;;;;8.57;100.00;98278.83;273467;1269;23858;-90
2023/12/26 02:14:13;;;;;;;2.20;1.20;;;;;;;8.57;100.00;98266.13;270881;1269;22560;-91
2023/12/26 02:20:19;;;;;;;2.10;1.00;;;;;;;8.53;100.00;98262.37;271592;1274;23398;-91
2023/12/26 02:26:54;;;;;;;1.70;1.10;;;;;;;8.49;100.00;98254.30;273106;1274;22215;-91
2023/12/26 02:33:09;;;;;;;1.10;0.90;;;;;;;8.47;100.00;98253.58;273156;1250;22584;-89
2023/12/26 02:39:11;;;;;;;1.40;0.90;;;;;;;8.48;100.00;98252.65;273131;1270;22921;-89
2023/12/26 02:45:14;;;;;;;3.70;1.00;;;;;;;8.49;100.00;98246.98;273380;1270;22511;-90
2023/12/26 02:51:16;;;;;;;2.50;1.10;;;;;;;8.45;100.00;98243.66;272197;1270;22572;-89
2023/12/26 02:57:21;;;;;;;2.30;0.90;;;;;;;8.40;100.00;98236.07;271305;1272;22458;-89
2023/12/26 03:03:23;;;;;;;1.60;0.80;;;;;;;8.36;100.00;98225.92;272934;1269;22401;-90
2023/12/26 03:09:52;;;;;;;2.10;0.70;;;;;;;8.25;100.00;98214.52;272264;1269;22412;-89
2023/12/26 03:15:55;;;;;;;3.00;1.20;;;;;;;8.08;100.00;98201.13;272156;1269;23303;-90
2023/12/26 03:22:00;;;;;;;0.60;0.60;;;;;;;7.92;100.00;98198.58;272074;1269;23426;-91
2023/12/26 03:28:03;;;;;;;3.70;0.70;;;;;;;7.79;100.00;98201.58;270281;1270;23412;-90
2023/12/26 03:34:06;;;;;;;3.30;1.10;;;;;;;7.65;100.00;98204.23;272525;1270;22337;-89
2023/12/26 03:40:09;;;;;;;1.90;1.10;;;;;;;7.54;100.00;98197.52;271369;1270;22646;-89
2023/12/26 03:46:11;;;;;;;1.60;0.80;;;;;;;7.50;100.00;98196.39;271471;1270;24042;-89
2023/12/26 03:52:33;;;;;;;2.00;0.90;;;;;;;7.48;100.00;98192.95;272863;1272;22223;-89
2023/12/26 03:59:16;;;;;;;1.50;1.10;;;;;;;7.51;100.00;98181.13;272406;1274;22576;-89
2023/12/26 04:05:39;;;;;;;2.10;0.80;;;;;;;7.55;100.00;98170.69;271391;1271;22361;-89
2023/12/26 04:11:42;;;;;;;2.40;0.90;;;;;;;7.71;100.00;98150.51;271855;1270;22556;-89
2023/12/26 04:17:46;;;;;;;2.00;1.00;;;;;;;7.84;100.00;98139.96;270399;1269;22492;-89
2023/12/26 04:23:49;;;;;;;1.50;0.90;;;;;;;7.87;100.00;98138.67;270231;1270;22367;-89
2023/12/26 04:29:54;;;;;;;1.40;0.90;;;;;;;7.88;100.00;98142.95;269163;1270;22533;-88
2023/12/26 04:35:57;;;;;;;3.30;1.20;;;;;;;7.86;100.00;98150.56;269915;1270;22450;-89
2023/12/26 04:41:59;;;;;;;3.70;1.10;;;;;;;7.84;100.00;98134.90;271023;1271;22663;-89
2023/12/26 04:48:10;;;;;;;2.70;1.20;;;;;;;7.93;100.00;98120.56;271319;1270;23481;-92
2023/12/26 04:54:13;;;;;;;1.40;0.90;;;;;;;7.98;100.00;98111.35;271096;1270;22561;-89
2023/12/26 05:00:16;;;;;;;1.50;1.00;;;;;;;8.10;100.00;98095.85;270954;1272;22567;-89
2023/12/26 05:06:19;;;;;;;1.80;0.90;;;;;;;8.23;100.00;98085.52;270538;1271;22213;-90
2023/12/26 05:12:22;;;;;;;1.10;0.80;;;;;;;8.22;100.00;98080.98;271646;1270;23563;-89
2023/12/26 05:18:30;;;;;;;2.20;1.00;;;;;;;8.22;100.00;98078.18;272861;1272;22527;-90
2023/12/26 05:24:34;;;;;;;2.80;1.40;;;;;;;8.26;100.00;98067.39;273088;1271;23054;-89
2023/12/26 05:30:40;;;;;;;2.20;1.00;;;;;;;8.22;100.00;98059.86;270018;1271;22614;-89
2023/12/26 05:36:43;;;;;;;1.70;0.80;;;;;;;8.18;100.00;98049.94;271715;1272;22726;-88
2023/12/26 05:42:47;;;;;;;1.60;0.80;;;;;;;8.07;100.00;98046.91;272520;1264;22983;-89
2023/12/26 05:49:52;;;;;;;2.20;0.80;;;;;;;7.99;100.00;98039.17;272990;1279;22206;-89
2023/12/26 05:56:56;;;;;;;2.40;0.80;;;;;;;8.07;100.00;98024.64;272617;1273;22285;-88
2023/12/26 06:03:40;;;;;;;1.70;0.60;;;;;;;8.10;100.00;98022.64;273245;1278;22196;-88
2023/12/26 06:11:10;;;;;;;1.50;0.60;;;;;;;8.08;100.00;98012.12;273223;1276;23351;-89
2023/12/26 06:19:16;;;;;;;0.90;0.80;;;;;;;8.15;100.00;98008.81;272229;1279;22194;-89
2023/12/26 06:26:34;;;;;;;1.80;0.70;;;;;;;8.35;100.00;98005.42;271792;1271;22961;-88
2023/12/26 06:33:54;;;;;;;3.10;0.70;;;;;;;8.45;100.00;98005.92;269861;1272;22741;-90
2023/12/26 06:40:42;;;;;;;1.50;0.70;;;;;;;8.53;100.00;98012.34;271669;1276;22698;-90
2023/12/26 06:47:40;;;;;;;1.80;0.70;;;;;;;8.62;100.00;98013.93;271070;1277;24229;-89
2023/12/26 06:54:06;;;;;;;1.10;0.70;;;;;;;8.63;100.00;98014.79;270899;1277;23345;-91
2023/12/26 07:00:29;;;;;;;0.90;0.60;;;;;;;8.70;100.00;98027.20;271517;1280;22242;-89
2023/12/26 07:07:13;;;;;;;0.70;0.50;;;;;;;8.74;100.00;98038.52;272362;1281;22348;-89
2023/12/26 07:14:35;;;;;;;1.70;0.70;;;;;;;8.83;100.00;98041.52;269940;1288;22542;-89
2023/12/26 07:21:08;;;;;;;0.80;0.50;;;;;;;9.00;100.00;98054.03;271235;1288;23005;-92
2023/12/26 07:27:51;;;;;;;0.50;0.40;;;;;;;9.21;100.00;98066.23;269019;1286;22612;-88
2023/12/26 07:42:07;;;;;;;;;;;;;;;;;;;;;
2023/12/26 07:49:06;;;;;;;1.00;0.70;;;;;;;9.89;100.00;98085.70;270004;1274;22567;-89
2023/12/26 07:56:09;;;;;;;1.90;0.80;;;;;;;10.10;100.00;98094.92;265915;1278;23490;-90
2023/12/26 08:02:15;;;;;;;1.90;0.70;;;;;;;10.26;100.00;98108.51;271948;1285;22330;-89
2023/12/26 08:09:11;;;;;;;1.10;0.50;;;;;;;10.35;100.00;98119.89;271686;1280;22920;-89
2023/12/26 08:40:35;;;;;;;1.60;0.80;;;;;;;10.80;100.00;98144.87;271531;1284;23891;-90
2023/12/26 08:48:30;;;;;;;1.30;0.50;;;;;;;10.93;100.00;98155.23;271451;1287;22606;-89
2023/12/26 09:11:45;;;;;;;1.50;0.80;;;;;;;11.71;100.00;98172.45;265400;1301;22647;-89
2023/12/26 09:19:35;;;;;;;1.80;1.00;;;;;;;11.89;100.00;98169.13;263197;1301;24390;-90
2023/12/26 09:27:50;;;;;;;4.70;1.80;;;;;;;11.92;100.00;98169.59;262904;1307;22571;-91
2023/12/26 09:35:34;;;;;;;;;;;;;;;;;;;;;
2023/12/26 09:43:03;;;;;;;1.40;0.90;;;;;;;12.37;100.00;98179.95;267751;1289;22377;-92
2023/12/26 09:58:24;;;;;;;2.40;1.10;;;;;;;12.33;100.00;98195.59;270117;1292;22348;-92
2023/12/26 10:06:04;;;;;;;1.70;0.90;;;;;;;12.10;100.00;98203.08;269713;1287;22570;-91
2023/12/26 10:13:58;;;;;;;1.70;1.00;;;;;;;11.92;100.00;98196.55;269157;1285;24240;-92
2023/12/26 10:22:08;;;;;;;2.10;1.00;;;;;;;11.75;100.00;98196.66;269356;1287;22585;-90
2023/12/26 10:29:56;;;;;;;2.00;0.90;;;;;;;11.66;100.00;98206.03;268125;1292;22642;-92
2023/12/26 10:45:47;;;;;;;1.60;1.00;;;;;;;11.48;99.91;98225.22;267068;1289;22926;-91
2023/12/26 10:53:04;;;;;;;1.50;0.80;;;;;;;11.51;99.32;98224.26;270823;1289;23457;-92
2023/12/26 11:00:33;;;;;;;1.70;0.70;;;;;;;11.74;97.95;98224.95;270120;1284;22624;-90
2023/12/26 11:07:37;;;;;;;2.70;1.00;;;;;;;11.91;97.43;98231.11;271208;1277;22223;-91
2023/12/26 11:15:01;;;;;;;1.80;0.80;;;;;;;12.02;96.11;98243.73;270734;1271;23116;-92
2023/12/26 11:22:36;;;;;;;1.30;0.80;;;;;;;12.08;94.05;98249.50;271047;1275;22534;-92
2023/12/26 11:46:13;;;;;;;1.30;1.00;;;;;;;11.97;91.79;98268.45;269914;1278;25423;-91
2023/12/26 11:53:35;;;;;;;3.10;1.00;;;;;;;11.90;92.06;98282.98;272423;1272;22410;-91
2023/12/26 12:01:24;;;;;;;2.10;1.10;;;;;;;11.72;91.24;98296.70;271460;1272;23678;-89
2023/12/26 12:08:23;;;;;;;2.10;1.00;;;;;;;11.55;90.00;98310.54;271527;1271;25403;-91
2023/12/26 12:16:06;;;;;;;1.70;1.10;;;;;;;11.42;90.07;98315.05;272775;1278;22245;-91
2023/12/26 12:23:51;;;;;;;1.60;1.00;;;;;;;11.28;89.92;98322.91;271020;1275;22220;-90
2023/12/26 12:30:57;;;;;;;2.50;1.20;;;;;;;11.21;89.46;98321.61;271477;1275;22579;-90
2023/12/26 12:37:40;;;;;;;3.70;1.70;;;;;;;11.13;89.85;98332.50;272309;1274;22929;-89
2023/12/26 13:16:53;;;;;;;2.30;1.20;;;;;;;10.73;88.61;98347.31;270229;1278;25177;-91
2023/12/26 13:24:12;;;;;;;3.00;1.10;;;;;;;10.67;88.21;98350.13;271452;1277;22219;-92
2023/12/26 13:31:40;;;;;;;3.20;1.40;;;;;;;10.62;88.02;98360.36;271837;1278;22643;-90
2023/12/26 13:39:28;;;;;;;;;;;;;;;;;;;;;
2023/12/26 13:47:14;;;;;;;4.00;1.50;;;;;;;10.50;88.31;98377.01;271239;1283;22422;-90
2023/12/26 13:55:19;;;;;;;;;;;;;;;;;;;;;
2023/12/26 14:02:52;;;;;;;2.10;1.20;;;;;;;10.32;89.32;98395.02;271285;1277;23829;-90
2023/12/26 14:10:29;;;;;;;1.60;1.00;;;;;;;10.31;89.43;98410.90;269234;1283;22925;-90
2023/12/26 14:17:46;;;;;;;;;;;;;;;10.28;89.41;98418.32;272147;1278;22551;-91
2023/12/26 14:25:56;;;;;;;2.10;1.20;;;;;;;10.25;89.40;98419.79;271710;1274;22582;-90
2023/12/26 14:33:55;;;;;;;2.80;1.10;;;;;;;10.22;89.58;98425.33;271467;1276;22206;-90
2023/12/26 14:41:36;;;;;;;2.40;1.20;;;;;;;10.20;89.63;98431.02;272585;1276;23009;-90
2023/12/26 14:49:27;;;;;;;;;;;;;;;;;;;;;
2023/12/26 14:57:08;;;;;;;2.50;1.40;;;;;;;10.14;89.47;98450.08;272777;1278;22576;-90
2023/12/26 15:04:55;;;;;;;5.30;1.80;;;;;;;10.10;89.61;98453.33;271841;1270;22230;-90
2023/12/26 15:12:15;;;;;;;4.30;2.00;;;;;;;10.06;89.66;98458.69;273227;1273;23558;-90
2023/12/26 15:20:33;;;;;;;3.50;1.70;;;;;;;10.00;90.02;98471.69;271482;1289;22239;-90
2023/12/26 15:28:27;;;;;;;5.10;1.90;;;;;;;9.94;90.14;98477.69;267919;1291;22291;-90
2023/12/26 15:35:58;;;;;;;3.20;1.80;;;;;;;9.89;90.30;98479.92;269747;1284;23340;-90
2023/12/26 15:59:37;;;;;;;3.50;1.90;;;;;;;9.76;90.69;98507.64;269652;1289;22392;-91
2023/12/26 16:07:42;;;;;;;5.60;2.00;;;;;;;9.70;91.07;98507.91;271735;1279;22323;-92
2023/12/26 16:31:04;;;;;;;4.40;1.90;;;;;;;9.62;91.71;98523.09;272585;1278;22279;-93
2023/12/26 16:38:43;;;;;;;3.50;1.80;;;;;;;9.66;91.75;98525.85;271173;1277;23350;-91
2023/12/26 16:54:21;;;;;;;3.30;1.80;;;;;;;9.68;91.81;98533.98;271159;1282;22321;-91
2023/12/26 17:02:09;;;;;;;3.40;1.40;;;;;;;9.73;91.74;98539.55;271566;1284;22969;-90
2023/12/26 17:10:00;;;;;;;4.00;1.90;;;;;;;9.76;91.66;98536.30;271955;1278;22735;-91
2023/12/26 17:17:53;;;;;;;4.70;2.00;;;;;;;9.82;91.53;98550.24;268889;1282;22438;-93
2023/12/26 17:25:36;;;;;;;3.70;1.70;;;;;;;9.77;92.03;98572.16;269846;1264;23376;-92
2023/12/26 17:33:39;;;;;;;5.40;1.60;;;;;;;9.55;93.18;98592.61;269579;1283;23271;-89
2023/12/26 17:41:26;;;;;;;;;;;;;;;;;;;;;
2023/12/26 17:49:13;;;;;;;5.50;2.10;;;;;;;8.76;95.02;98645.51;268728;1300;22276;-90
2023/12/26 18:29:12;;;;;;;;;;;;;;;;;;;;;
2023/12/26 18:44:49;;;;;;;;;;;;;;;;;;;;;
2023/12/26 18:52:21;;;;;;;6.00;2.80;;;;;;;7.60;100.00;98708.20;272389;1278;22228;-90
2023/12/26 19:07:58;;;;;;;5.50;2.60;;;;;;;7.29;100.00;98717.72;272274;1279;22437;-92
2023/12/26 19:16:22;;;;;;;;;;;;;;;;;;;;;
2023/12/26 19:23:53;;;;;;;4.60;2.50;;;;;;;7.04;100.00;98724.92;271743;1287;22238;-89
2023/12/26 19:31:47;;;;;;;;;;;;;;;;;;;;;
2023/12/26 19:39:33;;;;;;;11.10;2.60;;;;;;;7.21;100.00;98715.92;272367;1283;22314;-90
2023/12/26 19:47:33;;;;;;;5.60;2.60;;;;;;;7.40;100.00;98714.98;269415;1283;22670;-88
2023/12/26 19:54:58;;;;;;;6.10;2.40;;;;;;;7.56;100.00;98711.86;261547;1298;5388161;-91
2023/12/26 20:03:08;;;;;;;7.10;3.00;;;;;;;7.71;100.00;98714.62;269568;1292;23491;-91
2023/12/26 20:19:08;;;;;;;;;;;;;;;;;;;;;
2023/12/26 20:26:44;;;;;;;9.80;3.50;;;;;;;7.95;100.00;98759.02;268491;1286;23789;-91
2023/12/26 20:34:31;;;;;;;6.90;2.90;;;;;;;7.85;100.00;98769.61;270668;1285;22236;-90
2023/12/26 20:42:31;;;;;;;;;;;;;;;;;;;;;
2023/12/26 20:50:14;;;;;;;8.50;3.00;;;;;;;7.58;100.00;98787.46;270798;1271;22634;-90
2023/12/26 21:05:43;;;;;;;11.40;5.60;;;;;;;7.48;100.00;98829.23;268586;1283;22738;-92
2023/12/26 21:13:42;;;;;;;6.70;3.70;;;;;;;7.42;100.00;98845.51;270641;1291;22243;-92
2023/12/26 21:29:30;;;;;;;5.20;2.30;;;;;;;6.80;100.00;98868.98;269197;1295;26767;-91
2023/12/26 21:37:23;;;;;;;9.00;2.60;;;;;;;6.53;100.00;98893.72;268177;1299;22336;-92
2023/12/26 21:45:10;;;;;;;5.00;2.00;;;;;;;6.28;100.00;98897.15;270090;1291;22262;-90
2023/12/26 21:52:45;;;;;;;8.50;2.20;;;;;;;6.15;100.00;98909.20;271684;1281;22226;-92
2023/12/26 22:00:34;;;;;;;7.50;2.50;;;;;;;6.08;100.00;98917.94;272590;1276;23107;-92
2023/12/26 22:08:32;;;;;;;6.00;2.10;;;;;;;5.99;100.00;98916.69;272436;1278;22220;-90
2023/12/26 22:16:25;;;;;;;6.30;2.70;;;;;;;5.89;100.00;98919.77;272488;1278;22227;-90
2023/12/26 22:24:16;;;;;;;6.30;2.50;;;;;;;5.77;100.00;98928.77;271195;1287;22546;-90
2023/12/26 22:32:17;;;;;;;4.20;2.20;;;;;;;5.68;100.00;98945.79;270748;1289;23287;-90
2023/12/26 22:40:16;;;;;;;8.50;2.90;;;;;;;5.60;100.00;98950.45;268014;1280;23433;-92
2023/12/26 22:55:44;;;;;;;9.60;2.80;;;;;;;5.49;100.00;98960.98;272110;1273;22359;-91
2023/12/26 23:11:39;;;;;;;7.70;3.80;;;;;;;5.52;100.00;98970.37;272684;1281;22409;-90
2023/12/26 23:19:43;;;;;;;10.60;4.80;;;;;;;5.58;100.00;98973.15;272679;1281;23525;-92
2023/12/26 23:27:38;;;;;;;14.20;6.20;;;;;;;5.57;100.00;98973.55;271874;1286;22253;-91
2023/12/26 23:35:22;;;;;;;14.70;7.20;;;;;;;5.49;100.00;98966.55;271680;1280;22357;-90
2023/12/26 23:43:09;;;;;;;18.60;6.60;;;;;;;5.39;100.00;98964.40;270071;1277;22245;-92
2023/12/26 23:51:11;;;;;;;16.00;5.60;;;;;;;5.31;100.00;98964.06;270047;1278;22440;-89
2023/12/26 23:58:59;;;;;;;10.50;4.20;;;;;;;5.29;100.00;98970.13;270694;1286;22325;-91
